Williston, ND

4:45 AM CDT on October 20, 2014 (GMT -0500)
Valhalla | Change Station
CLOSE
Current Station
Personal Weather Station
Location: Williston, ND
Elevation: 2040 ft
Nearby Weather Stations

Elev 2040 ft 48.33 °N, 103.62 °W | Updated 22 seconds ago

Clear
Clear
45.7 °F
Feels Like 42 °F
N
7.8
Wind Variable Wind from SE
Gusts 9.4 mph

Today
High -- | Low -- °F
--% Chance of Precip.
Yesterday
High -- | Low -- °F
Precip. -- in
8:21 AM 6:56 PM
Waning Crescent, 12% visible
Pressure 30.02 in
Visibility 10.0 miles
Clouds Clear
Windchill 42 °F
Dew Point 38 °F
Humidity 74%
Rainfall 0.00 in
Snow Depth Not available.
UV 0 out of 12
Pollen 1.70 out of 12
Air Quality Not available.
Flu Activity Local Activity
METAR KISN 200852Z AUTO 00000KT 10SM CLR 01/M01 A2999 RMK AO2 SLP164 T00111006 53001

More Conditions Fewer Conditions

Pressure 30.02 in
Visibility 10.0 miles
Clouds Clear
Windchill 42 °F
Dew Point 38 °F
Humidity 74%
Rainfall 0.00 in
Snow Depth Not available.
UV 0 out of 12
Pollen 1.70 out of 12
Air Quality Not available.
Flu Activity Local Activity
METAR KISN 200852Z AUTO 00000KT 10SM CLR 01/M01 A2999 RMK AO2 SLP164 T00111006 53001

More Conditions Fewer Conditions

10-Day Weather Forecast

Almanac

Astronomy

Oct. 20, 2014 Rise Set
Actual Time 8:21 AM CDT 6:56 PM CDT
Civil Twilight 7:50 AM CDT 7:27 PM CDT
Nautical Twilight 7:13 AM CDT 8:04 PM CDT
Astronomical Twilight 6:37 AM CDT 8:40 PM CDT
Moon 4:58 AM CDT 5:32 PM CDT
Length of Visible Light 11h 37m
Length of Day
10h 34m
Waning Crescent, 12% of the Moon is Illuminated
Today
Waning Crescent
Oct 23
New
Oct 30
First Quarter
Nov 6
Full
Nov 14
Last Quarter

Today's Extremes

State Highs State Lows

Community

WunderPhotos

Upload Photos

1,763,325 photos uploaded!

Nearby

Snow Depth

Station Depth Elevation
No new snow has been reported.

Earthquake Activity

City Distance Mag. Time & Date
No recent earthquake activity has been reported nearby.
Minimum magnitude displayed is 2.5.

Coastal Water Temperatures

Place Temperature
No Stations Reporting

Nearby Weather Stations